sensor_id;sensor_type;location;lat;lon;timestamp;P1;durP1;ratioP1;P2;durP2;ratioP2
32319;SDS011;19080;51.750;5.888;2024-03-08T00:00:06;32.83;;;19.85;;
32319;SDS011;19080;51.750;5.888;2024-03-08T00:02:44;32.75;;;18.38;;
32319;SDS011;19080;51.750;5.888;2024-03-08T00:05:13;28.00;;;16.70;;
32319;SDS011;19080;51.750;5.888;2024-03-08T00:07:41;30.05;;;18.90;;
32319;SDS011;19080;51.750;5.888;2024-03-08T00:10:09;33.35;;;19.05;;
32319;SDS011;19080;51.750;5.888;2024-03-08T00:12:42;31.38;;;18.80;;
32319;SDS011;19080;51.750;5.888;2024-03-08T00:15:10;33.15;;;18.65;;
32319;SDS011;19080;51.750;5.888;2024-03-08T00:17:42;32.15;;;19.92;;
32319;SDS011;19080;51.750;5.888;2024-03-08T00:20:09;32.90;;;19.27;;
32319;SDS011;19080;51.750;5.888;2024-03-08T00:22:37;27.90;;;18.05;;
32319;SDS011;19080;51.750;5.888;2024-03-08T00:25:05;30.40;;;18.63;;
32319;SDS011;19080;51.750;5.888;2024-03-08T00:27:36;28.10;;;18.50;;
32319;SDS011;19080;51.750;5.888;2024-03-08T00:30:03;27.33;;;17.17;;
32319;SDS011;19080;51.750;5.888;2024-03-08T00:32:31;28.30;;;17.42;;
32319;SDS011;19080;51.750;5.888;2024-03-08T00:34:58;28.90;;;19.05;;
32319;SDS011;19080;51.750;5.888;2024-03-08T00:37:25;27.15;;;18.35;;
32319;SDS011;19080;51.750;5.888;2024-03-08T00:39:52;32.00;;;19.25;;
32319;SDS011;19080;51.750;5.888;2024-03-08T00:42:20;27.90;;;17.42;;
32319;SDS011;19080;51.750;5.888;2024-03-08T00:44:48;34.85;;;19.70;;
32319;SDS011;19080;51.750;5.888;2024-03-08T00:47:17;26.00;;;17.80;;
32319;SDS011;19080;51.750;5.888;2024-03-08T00:49:44;27.77;;;18.90;;
32319;SDS011;19080;51.750;5.888;2024-03-08T00:52:11;29.83;;;18.58;;
32319;SDS011;19080;51.750;5.888;2024-03-08T00:54:38;33.95;;;18.73;;
32319;SDS011;19080;51.750;5.888;2024-03-08T00:57:05;29.83;;;18.50;;
32319;SDS011;19080;51.750;5.888;2024-03-08T00:59:33;32.08;;;19.00;;
32319;SDS011;19080;51.750;5.888;2024-03-08T01:02:01;29.38;;;18.30;;
32319;SDS011;19080;51.750;5.888;2024-03-08T01:04:28;28.55;;;18.70;;
32319;SDS011;19080;51.750;5.888;2024-03-08T01:06:58;28.45;;;18.13;;
32319;SDS011;19080;51.750;5.888;2024-03-08T01:09:25;29.80;;;18.85;;
32319;SDS011;19080;51.750;5.888;2024-03-08T01:11:53;28.20;;;18.65;;
32319;SDS011;19080;51.750;5.888;2024-03-08T01:14:21;27.98;;;17.83;;
32319;SDS011;19080;51.750;5.888;2024-03-08T01:16:55;30.02;;;18.48;;
32319;SDS011;19080;51.750;5.888;2024-03-08T01:19:22;29.55;;;18.77;;
32319;SDS011;19080;51.750;5.888;2024-03-08T01:21:50;29.65;;;19.98;;
32319;SDS011;19080;51.750;5.888;2024-03-08T01:24:17;30.55;;;19.48;;
32319;SDS011;19080;51.750;5.888;2024-03-08T01:26:44;27.27;;;18.52;;
32319;SDS011;19080;51.750;5.888;2024-03-08T01:29:11;32.15;;;19.40;;
32319;SDS011;19080;51.750;5.888;2024-03-08T01:31:38;28.67;;;19.20;;
32319;SDS011;19080;51.750;5.888;2024-03-08T01:34:05;32.80;;;21.05;;
32319;SDS011;19080;51.750;5.888;2024-03-08T01:36:31;27.90;;;19.42;;
32319;SDS011;19080;51.750;5.888;2024-03-08T01:38:58;29.92;;;18.73;;
32319;SDS011;19080;51.750;5.888;2024-03-08T01:41:25;31.20;;;19.08;;
32319;SDS011;19080;51.750;5.888;2024-03-08T01:43:56;28.52;;;18.73;;
32319;SDS011;19080;51.750;5.888;2024-03-08T01:46:23;30.55;;;19.50;;
32319;SDS011;19080;51.750;5.888;2024-03-08T01:48:50;30.15;;;20.02;;
32319;SDS011;19080;51.750;5.888;2024-03-08T01:51:17;27.95;;;19.15;;
32319;SDS011;19080;51.750;5.888;2024-03-08T01:53:45;31.13;;;20.15;;
32319;SDS011;19080;51.750;5.888;2024-03-08T01:56:13;26.52;;;18.73;;
32319;SDS011;19080;51.750;5.888;2024-03-08T01:58:41;33.17;;;20.15;;
32319;SDS011;19080;51.750;5.888;2024-03-08T02:01:11;26.75;;;19.05;;
32319;SDS011;19080;51.750;5.888;2024-03-08T02:03:42;29.08;;;20.50;;
32319;SDS011;19080;51.750;5.888;2024-03-08T02:06:11;35.63;;;21.35;;
32319;SDS011;19080;51.750;5.888;2024-03-08T02:08:41;29.48;;;19.73;;
32319;SDS011;19080;51.750;5.888;2024-03-08T02:11:10;27.52;;;19.67;;
32319;SDS011;19080;51.750;5.888;2024-03-08T02:13:38;30.90;;;20.55;;
32319;SDS011;19080;51.750;5.888;2024-03-08T02:16:04;28.10;;;19.73;;
32319;SDS011;19080;51.750;5.888;2024-03-08T02:18:34;31.58;;;20.52;;
32319;SDS011;19080;51.750;5.888;2024-03-08T02:21:02;28.45;;;19.85;;
32319;SDS011;19080;51.750;5.888;2024-03-08T02:23:30;32.08;;;21.73;;
32319;SDS011;19080;51.750;5.888;2024-03-08T02:25:56;30.60;;;20.15;;
32319;SDS011;19080;51.750;5.888;2024-03-08T02:28:23;29.52;;;22.05;;
32319;SDS011;19080;51.750;5.888;2024-03-08T02:30:55;32.13;;;21.95;;
32319;SDS011;19080;51.750;5.888;2024-03-08T02:33:24;29.98;;;20.63;;
32319;SDS011;19080;51.750;5.888;2024-03-08T02:35:52;28.38;;;20.77;;
32319;SDS011;19080;51.750;5.888;2024-03-08T02:38:20;32.38;;;20.90;;
32319;SDS011;19080;51.750;5.888;2024-03-08T02:40:49;31.65;;;22.27;;
32319;SDS011;19080;51.750;5.888;2024-03-08T02:43:18;35.13;;;21.75;;
32319;SDS011;19080;51.750;5.888;2024-03-08T02:45:46;34.00;;;21.83;;
32319;SDS011;19080;51.750;5.888;2024-03-08T02:48:13;31.48;;;21.55;;
32319;SDS011;19080;51.750;5.888;2024-03-08T02:50:41;30.20;;;21.13;;
32319;SDS011;19080;51.750;5.888;2024-03-08T02:53:09;33.22;;;22.50;;
32319;SDS011;19080;51.750;5.888;2024-03-08T02:55:38;28.50;;;19.83;;
32319;SDS011;19080;51.750;5.888;2024-03-08T02:58:05;31.20;;;20.65;;
32319;SDS011;19080;51.750;5.888;2024-03-08T03:00:35;32.58;;;22.35;;
32319;SDS011;19080;51.750;5.888;2024-03-08T03:03:02;31.27;;;21.60;;
32319;SDS011;19080;51.750;5.888;2024-03-08T03:05:30;31.13;;;20.70;;
32319;SDS011;19080;51.750;5.888;2024-03-08T03:07:56;32.35;;;21.67;;
32319;SDS011;19080;51.750;5.888;2024-03-08T03:10:24;29.90;;;21.27;;
32319;SDS011;19080;51.750;5.888;2024-03-08T03:12:52;33.25;;;21.85;;
32319;SDS011;19080;51.750;5.888;2024-03-08T03:15:19;30.05;;;20.98;;
32319;SDS011;19080;51.750;5.888;2024-03-08T03:17:46;34.00;;;22.88;;
32319;SDS011;19080;51.750;5.888;2024-03-08T03:20:14;32.67;;;21.45;;
32319;SDS011;19080;51.750;5.888;2024-03-08T03:22:42;29.70;;;20.38;;
32319;SDS011;19080;51.750;5.888;2024-03-08T03:25:18;33.85;;;23.00;;
32319;SDS011;19080;51.750;5.888;2024-03-08T03:27:52;33.10;;;21.85;;
32319;SDS011;19080;51.750;5.888;2024-03-08T03:30:23;35.03;;;22.07;;
32319;SDS011;19080;51.750;5.888;2024-03-08T03:32:53;32.33;;;21.10;;
32319;SDS011;19080;51.750;5.888;2024-03-08T03:35:21;29.13;;;21.63;;
32319;SDS011;19080;51.750;5.888;2024-03-08T03:37:49;33.40;;;22.50;;
32319;SDS011;19080;51.750;5.888;2024-03-08T03:40:28;30.17;;;22.17;;
32319;SDS011;19080;51.750;5.888;2024-03-08T03:42:55;32.80;;;21.92;;
32319;SDS011;19080;51.750;5.888;2024-03-08T03:45:23;34.15;;;22.42;;
32319;SDS011;19080;51.750;5.888;2024-03-08T03:47:50;33.38;;;22.02;;
32319;SDS011;19080;51.750;5.888;2024-03-08T03:50:18;34.08;;;21.63;;
32319;SDS011;19080;51.750;5.888;2024-03-08T03:52:49;26.07;;;16.40;;
32319;SDS011;19080;51.750;5.888;2024-03-08T03:55:16;36.63;;;24.13;;
32319;SDS011;19080;51.750;5.888;2024-03-08T03:57:43;34.20;;;23.48;;
32319;SDS011;19080;51.750;5.888;2024-03-08T04:00:12;35.50;;;24.73;;
32319;SDS011;19080;51.750;5.888;2024-03-08T04:02:40;32.00;;;22.13;;
32319;SDS011;19080;51.750;5.888;2024-03-08T04:05:08;37.10;;;24.70;;
32319;SDS011;19080;51.750;5.888;2024-03-08T04:07:35;32.20;;;23.20;;
32319;SDS011;19080;51.750;5.888;2024-03-08T04:10:03;34.85;;;23.80;;
32319;SDS011;19080;51.750;5.888;2024-03-08T04:12:33;34.25;;;23.58;;
32319;SDS011;19080;51.750;5.888;2024-03-08T04:15:00;35.55;;;22.65;;
32319;SDS011;19080;51.750;5.888;2024-03-08T04:17:27;32.67;;;22.33;;
32319;SDS011;19080;51.750;5.888;2024-03-08T04:19:54;32.67;;;22.70;;
32319;SDS011;19080;51.750;5.888;2024-03-08T04:22:21;32.00;;;23.20;;
32319;SDS011;19080;51.750;5.888;2024-03-08T04:24:48;35.67;;;23.98;;
32319;SDS011;19080;51.750;5.888;2024-03-08T04:27:14;37.05;;;23.58;;
32319;SDS011;19080;51.750;5.888;2024-03-08T04:29:41;36.08;;;24.58;;
32319;SDS011;19080;51.750;5.888;2024-03-08T04:32:09;37.72;;;23.83;;
32319;SDS011;19080;51.750;5.888;2024-03-08T04:34:36;35.38;;;23.45;;
32319;SDS011;19080;51.750;5.888;2024-03-08T04:37:03;38.40;;;23.60;;
32319;SDS011;19080;51.750;5.888;2024-03-08T04:39:31;34.92;;;22.30;;
32319;SDS011;19080;51.750;5.888;2024-03-08T04:41:59;35.10;;;24.05;;
32319;SDS011;19080;51.750;5.888;2024-03-08T04:44:32;33.10;;;22.73;;
32319;SDS011;19080;51.750;5.888;2024-03-08T04:47:00;34.90;;;22.88;;
32319;SDS011;19080;51.750;5.888;2024-03-08T04:49:27;31.38;;;21.60;;
32319;SDS011;19080;51.750;5.888;2024-03-08T04:51:54;36.38;;;23.67;;
32319;SDS011;19080;51.750;5.888;2024-03-08T04:54:21;34.22;;;24.15;;
32319;SDS011;19080;51.750;5.888;2024-03-08T04:56:48;35.35;;;23.20;;
32319;SDS011;19080;51.750;5.888;2024-03-08T04:59:15;34.67;;;23.38;;
32319;SDS011;19080;51.750;5.888;2024-03-08T05:01:41;33.67;;;23.65;;
32319;SDS011;19080;51.750;5.888;2024-03-08T05:04:09;36.40;;;24.17;;
32319;SDS011;19080;51.750;5.888;2024-03-08T05:06:36;36.35;;;23.85;;
32319;SDS011;19080;51.750;5.888;2024-03-08T05:09:03;37.20;;;23.75;;
32319;SDS011;19080;51.750;5.888;2024-03-08T05:11:42;35.78;;;23.90;;
32319;SDS011;19080;51.750;5.888;2024-03-08T05:14:11;35.42;;;23.80;;
32319;SDS011;19080;51.750;5.888;2024-03-08T05:16:43;35.78;;;24.02;;
32319;SDS011;19080;51.750;5.888;2024-03-08T05:19:10;39.30;;;25.27;;
32319;SDS011;19080;51.750;5.888;2024-03-08T05:21:36;35.72;;;24.30;;
32319;SDS011;19080;51.750;5.888;2024-03-08T05:24:03;38.03;;;24.77;;
32319;SDS011;19080;51.750;5.888;2024-03-08T05:26:31;38.10;;;24.45;;
32319;SDS011;19080;51.750;5.888;2024-03-08T05:28:59;37.75;;;23.70;;
32319;SDS011;19080;51.750;5.888;2024-03-08T05:31:26;37.45;;;24.50;;
32319;SDS011;19080;51.750;5.888;2024-03-08T05:33:54;33.38;;;22.75;;
32319;SDS011;19080;51.750;5.888;2024-03-08T05:36:22;40.75;;;25.50;;
32319;SDS011;19080;51.750;5.888;2024-03-08T05:38:48;41.40;;;25.70;;
32319;SDS011;19080;51.750;5.888;2024-03-08T05:41:16;35.20;;;24.23;;
32319;SDS011;19080;51.750;5.888;2024-03-08T05:43:44;36.60;;;24.75;;
32319;SDS011;19080;51.750;5.888;2024-03-08T05:46:14;39.22;;;25.45;;
32319;SDS011;19080;51.750;5.888;2024-03-08T05:48:43;38.63;;;25.33;;
32319;SDS011;19080;51.750;5.888;2024-03-08T05:51:10;38.00;;;24.33;;
32319;SDS011;19080;51.750;5.888;2024-03-08T05:53:36;38.97;;;24.15;;
32319;SDS011;19080;51.750;5.888;2024-03-08T05:56:03;39.40;;;25.75;;
32319;SDS011;19080;51.750;5.888;2024-03-08T05:58:30;44.75;;;26.73;;
32319;SDS011;19080;51.750;5.888;2024-03-08T06:00:57;37.38;;;23.83;;
32319;SDS011;19080;51.750;5.888;2024-03-08T06:03:24;37.00;;;24.88;;
32319;SDS011;19080;51.750;5.888;2024-03-08T06:05:51;42.03;;;25.85;;
32319;SDS011;19080;51.750;5.888;2024-03-08T06:08:18;38.47;;;24.55;;
32319;SDS011;19080;51.750;5.888;2024-03-08T06:10:45;36.05;;;24.38;;
32319;SDS011;19080;51.750;5.888;2024-03-08T06:13:15;42.90;;;26.33;;
32319;SDS011;19080;51.750;5.888;2024-03-08T06:15:41;43.28;;;26.85;;
32319;SDS011;19080;51.750;5.888;2024-03-08T06:18:08;36.67;;;24.55;;
32319;SDS011;19080;51.750;5.888;2024-03-08T06:20:38;39.22;;;25.52;;
32319;SDS011;19080;51.750;5.888;2024-03-08T06:23:05;37.88;;;25.17;;
32319;SDS011;19080;51.750;5.888;2024-03-08T06:25:31;38.83;;;25.08;;
32319;SDS011;19080;51.750;5.888;2024-03-08T06:27:58;39.38;;;25.17;;
32319;SDS011;19080;51.750;5.888;2024-03-08T06:30:24;39.83;;;24.05;;
32319;SDS011;19080;51.750;5.888;2024-03-08T06:32:51;39.80;;;25.83;;
32319;SDS011;19080;51.750;5.888;2024-03-08T06:35:18;40.53;;;25.35;;
32319;SDS011;19080;51.750;5.888;2024-03-08T06:37:46;37.20;;;24.73;;
32319;SDS011;19080;51.750;5.888;2024-03-08T06:40:13;40.05;;;25.30;;
32319;SDS011;19080;51.750;5.888;2024-03-08T06:42:41;40.10;;;26.35;;
32319;SDS011;19080;51.750;5.888;2024-03-08T06:45:07;37.20;;;24.17;;
32319;SDS011;19080;51.750;5.888;2024-03-08T06:47:36;40.05;;;25.13;;
32319;SDS011;19080;51.750;5.888;2024-03-08T06:50:03;35.55;;;23.30;;
32319;SDS011;19080;51.750;5.888;2024-03-08T06:52:31;38.22;;;24.42;;
32319;SDS011;19080;51.750;5.888;2024-03-08T06:54:57;40.17;;;23.85;;
32319;SDS011;19080;51.750;5.888;2024-03-08T06:57:24;37.17;;;24.27;;
32319;SDS011;19080;51.750;5.888;2024-03-08T06:59:51;34.83;;;23.65;;
32319;SDS011;19080;51.750;5.888;2024-03-08T07:02:18;35.08;;;23.60;;
32319;SDS011;19080;51.750;5.888;2024-03-08T07:04:45;38.70;;;24.35;;
32319;SDS011;19080;51.750;5.888;2024-03-08T07:07:12;40.42;;;25.83;;
32319;SDS011;19080;51.750;5.888;2024-03-08T07:09:39;37.10;;;24.27;;
32319;SDS011;19080;51.750;5.888;2024-03-08T07:12:05;30.85;;;21.90;;
32319;SDS011;19080;51.750;5.888;2024-03-08T07:14:33;33.13;;;21.73;;
32319;SDS011;19080;51.750;5.888;2024-03-08T07:17:00;28.50;;;20.95;;
32319;SDS011;19080;51.750;5.888;2024-03-08T07:19:30;31.15;;;20.55;;
32319;SDS011;19080;51.750;5.888;2024-03-08T07:21:57;30.58;;;20.85;;
32319;SDS011;19080;51.750;5.888;2024-03-08T07:24:24;30.90;;;20.42;;
32319;SDS011;19080;51.750;5.888;2024-03-08T07:27:16;28.20;;;19.63;;
32319;SDS011;19080;51.750;5.888;2024-03-08T07:29:44;27.92;;;19.98;;
32319;SDS011;19080;51.750;5.888;2024-03-08T07:32:11;26.65;;;18.48;;
32319;SDS011;19080;51.750;5.888;2024-03-08T07:34:38;25.52;;;19.20;;
32319;SDS011;19080;51.750;5.888;2024-03-08T07:37:06;29.05;;;20.50;;
32319;SDS011;19080;51.750;5.888;2024-03-08T07:39:40;28.23;;;19.92;;
32319;SDS011;19080;51.750;5.888;2024-03-08T07:42:07;26.92;;;19.13;;
32319;SDS011;19080;51.750;5.888;2024-03-08T07:44:34;25.67;;;19.70;;
32319;SDS011;19080;51.750;5.888;2024-03-08T07:47:00;26.23;;;19.15;;
32319;SDS011;19080;51.750;5.888;2024-03-08T07:49:27;26.08;;;19.45;;
32319;SDS011;19080;51.750;5.888;2024-03-08T07:51:54;30.23;;;19.95;;
32319;SDS011;19080;51.750;5.888;2024-03-08T07:54:20;24.38;;;19.15;;
32319;SDS011;19080;51.750;5.888;2024-03-08T07:56:47;25.10;;;19.00;;
32319;SDS011;19080;51.750;5.888;2024-03-08T07:59:14;24.92;;;19.27;;
32319;SDS011;19080;51.750;5.888;2024-03-08T08:01:41;24.83;;;18.40;;
32319;SDS011;19080;51.750;5.888;2024-03-08T08:04:08;25.17;;;18.58;;
32319;SDS011;19080;51.750;5.888;2024-03-08T08:06:39;23.45;;;18.13;;
32319;SDS011;19080;51.750;5.888;2024-03-08T08:09:07;25.92;;;18.35;;
32319;SDS011;19080;51.750;5.888;2024-03-08T08:11:54;23.50;;;17.92;;
32319;SDS011;19080;51.750;5.888;2024-03-08T08:14:21;26.02;;;18.45;;
32319;SDS011;19080;51.750;5.888;2024-03-08T08:16:48;25.10;;;19.58;;
32319;SDS011;19080;51.750;5.888;2024-03-08T08:19:16;22.80;;;17.80;;
32319;SDS011;19080;51.750;5.888;2024-03-08T08:21:43;23.48;;;18.58;;
32319;SDS011;19080;51.750;5.888;2024-03-08T08:24:10;26.58;;;18.92;;
32319;SDS011;19080;51.750;5.888;2024-03-08T08:26:37;26.15;;;19.00;;
32319;SDS011;19080;51.750;5.888;2024-03-08T08:29:06;23.10;;;19.30;;
32319;SDS011;19080;51.750;5.888;2024-03-08T08:31:33;26.48;;;19.40;;
32319;SDS011;19080;51.750;5.888;2024-03-08T08:34:00;25.45;;;19.25;;
32319;SDS011;19080;51.750;5.888;2024-03-08T08:36:27;24.13;;;19.58;;
32319;SDS011;19080;51.750;5.888;2024-03-08T08:38:56;24.58;;;18.65;;
32319;SDS011;19080;51.750;5.888;2024-03-08T08:41:24;24.77;;;18.20;;
32319;SDS011;19080;51.750;5.888;2024-03-08T08:43:53;26.50;;;20.02;;
32319;SDS011;19080;51.750;5.888;2024-03-08T08:46:34;22.90;;;18.17;;
32319;SDS011;19080;51.750;5.888;2024-03-08T08:49:07;25.35;;;19.13;;
32319;SDS011;19080;51.750;5.888;2024-03-08T08:51:37;24.83;;;19.25;;
32319;SDS011;19080;51.750;5.888;2024-03-08T08:54:03;24.67;;;17.70;;
32319;SDS011;19080;51.750;5.888;2024-03-08T08:56:36;25.05;;;17.10;;
32319;SDS011;19080;51.750;5.888;2024-03-08T08:59:03;26.00;;;18.35;;
32319;SDS011;19080;51.750;5.888;2024-03-08T09:01:31;28.27;;;19.08;;
32319;SDS011;19080;51.750;5.888;2024-03-08T09:03:58;29.08;;;19.23;;
32319;SDS011;19080;51.750;5.888;2024-03-08T09:06:24;22.70;;;17.90;;
32319;SDS011;19080;51.750;5.888;2024-03-08T09:08:52;23.52;;;17.73;;
32319;SDS011;19080;51.750;5.888;2024-03-08T09:11:19;23.75;;;17.40;;
32319;SDS011;19080;51.750;5.888;2024-03-08T09:13:46;23.60;;;18.35;;
32319;SDS011;19080;51.750;5.888;2024-03-08T09:16:13;25.38;;;18.13;;
32319;SDS011;19080;51.750;5.888;2024-03-08T09:18:40;23.52;;;19.08;;
32319;SDS011;19080;51.750;5.888;2024-03-08T09:21:08;23.02;;;17.65;;
32319;SDS011;19080;51.750;5.888;2024-03-08T09:23:37;24.88;;;19.25;;
32319;SDS011;19080;51.750;5.888;2024-03-08T09:26:04;23.02;;;17.50;;
32319;SDS011;19080;51.750;5.888;2024-03-08T09:28:38;23.17;;;18.08;;
32319;SDS011;19080;51.750;5.888;2024-03-08T09:31:05;24.35;;;19.00;;
32319;SDS011;19080;51.750;5.888;2024-03-08T09:33:32;22.35;;;17.70;;
32319;SDS011;19080;51.750;5.888;2024-03-08T09:36:01;27.42;;;18.45;;
32319;SDS011;19080;51.750;5.888;2024-03-08T09:38:30;22.42;;;18.98;;
32319;SDS011;19080;51.750;5.888;2024-03-08T09:40:57;22.48;;;17.95;;
32319;SDS011;19080;51.750;5.888;2024-03-08T09:43:23;24.38;;;18.73;;
32319;SDS011;19080;51.750;5.888;2024-03-08T09:45:51;22.83;;;17.70;;
32319;SDS011;19080;51.750;5.888;2024-03-08T09:48:17;21.98;;;18.00;;
32319;SDS011;19080;51.750;5.888;2024-03-08T09:50:46;23.05;;;18.27;;
32319;SDS011;19080;51.750;5.888;2024-03-08T09:53:13;21.25;;;17.02;;
32319;SDS011;19080;51.750;5.888;2024-03-08T09:55:39;21.30;;;17.15;;
32319;SDS011;19080;51.750;5.888;2024-03-08T09:58:11;23.50;;;17.40;;
32319;SDS011;19080;51.750;5.888;2024-03-08T10:00:54;21.83;;;16.95;;
32319;SDS011;19080;51.750;5.888;2024-03-08T10:03:23;20.17;;;17.02;;
32319;SDS011;19080;51.750;5.888;2024-03-08T10:05:53;23.05;;;18.13;;
32319;SDS011;19080;51.750;5.888;2024-03-08T10:08:27;23.25;;;17.77;;
32319;SDS011;19080;51.750;5.888;2024-03-08T10:10:56;20.92;;;16.75;;
32319;SDS011;19080;51.750;5.888;2024-03-08T10:13:26;18.92;;;15.35;;
32319;SDS011;19080;51.750;5.888;2024-03-08T10:15:54;21.67;;;16.83;;
32319;SDS011;19080;51.750;5.888;2024-03-08T10:18:21;20.58;;;16.67;;
32319;SDS011;19080;51.750;5.888;2024-03-08T10:21:02;20.30;;;16.70;;
32319;SDS011;19080;51.750;5.888;2024-03-08T10:23:34;19.80;;;16.23;;
32319;SDS011;19080;51.750;5.888;2024-03-08T10:28:44;19.88;;;16.73;;
32319;SDS011;19080;51.750;5.888;2024-03-08T10:31:13;21.60;;;15.57;;
32319;SDS011;19080;51.750;5.888;2024-03-08T10:33:45;19.47;;;15.73;;
32319;SDS011;19080;51.750;5.888;2024-03-08T10:36:13;20.30;;;16.27;;
32319;SDS011;19080;51.750;5.888;2024-03-08T10:38:42;18.38;;;15.00;;
32319;SDS011;19080;51.750;5.888;2024-03-08T10:49:31;19.58;;;16.63;;
32319;SDS011;19080;51.750;5.888;2024-03-08T10:52:02;20.13;;;14.65;;
32319;SDS011;19080;51.750;5.888;2024-03-08T10:54:30;21.08;;;16.20;;
32319;SDS011;19080;51.750;5.888;2024-03-08T10:56:58;20.33;;;16.10;;
32319;SDS011;19080;51.750;5.888;2024-03-08T10:59:25;17.95;;;14.52;;
32319;SDS011;19080;51.750;5.888;2024-03-08T11:01:53;20.08;;;16.38;;
32319;SDS011;19080;51.750;5.888;2024-03-08T11:04:20;20.95;;;16.58;;
32319;SDS011;19080;51.750;5.888;2024-03-08T11:06:50;23.80;;;17.20;;
32319;SDS011;19080;51.750;5.888;2024-03-08T11:09:30;22.48;;;16.73;;
32319;SDS011;19080;51.750;5.888;2024-03-08T11:14:53;20.35;;;16.20;;
32319;SDS011;19080;51.750;5.888;2024-03-08T11:20:00;18.00;;;15.25;;
32319;SDS011;19080;51.750;5.888;2024-03-08T11:22:34;22.20;;;15.00;;
32319;SDS011;19080;51.750;5.888;2024-03-08T11:25:04;25.98;;;16.67;;
32319;SDS011;19080;51.750;5.888;2024-03-08T11:27:37;21.33;;;16.90;;
32319;SDS011;19080;51.750;5.888;2024-03-08T11:30:04;18.75;;;15.43;;
32319;SDS011;19080;51.750;5.888;2024-03-08T11:32:44;19.13;;;15.55;;
32319;SDS011;19080;51.750;5.888;2024-03-08T11:35:19;21.90;;;16.75;;
32319;SDS011;19080;51.750;5.888;2024-03-08T11:37:47;19.42;;;15.77;;
32319;SDS011;19080;51.750;5.888;2024-03-08T11:40:14;20.23;;;16.20;;
32319;SDS011;19080;51.750;5.888;2024-03-08T11:42:46;19.58;;;15.73;;
32319;SDS011;19080;51.750;5.888;2024-03-08T11:45:18;20.05;;;16.10;;
32319;SDS011;19080;51.750;5.888;2024-03-08T11:47:48;18.00;;;15.10;;
32319;SDS011;19080;51.750;5.888;2024-03-08T11:50:17;21.58;;;15.75;;
32319;SDS011;19080;51.750;5.888;2024-03-08T11:52:47;19.27;;;15.68;;
32319;SDS011;19080;51.750;5.888;2024-03-08T11:55:14;21.05;;;16.88;;
32319;SDS011;19080;51.750;5.888;2024-03-08T11:57:41;20.35;;;16.17;;
32319;SDS011;19080;51.750;5.888;2024-03-08T12:00:15;21.70;;;16.80;;
32319;SDS011;19080;51.750;5.888;2024-03-08T12:03:05;22.10;;;16.40;;
32319;SDS011;19080;51.750;5.888;2024-03-08T12:05:33;18.70;;;15.50;;
32319;SDS011;19080;51.750;5.888;2024-03-08T12:08:03;21.13;;;16.50;;
32319;SDS011;19080;51.750;5.888;2024-03-08T12:10:34;21.52;;;15.93;;
32319;SDS011;19080;51.750;5.888;2024-03-08T12:13:04;21.48;;;15.88;;
32319;SDS011;19080;51.750;5.888;2024-03-08T12:15:39;21.98;;;16.33;;
32319;SDS011;19080;51.750;5.888;2024-03-08T12:18:06;22.90;;;16.92;;
32319;SDS011;19080;51.750;5.888;2024-03-08T12:20:34;19.20;;;15.95;;
32319;SDS011;19080;51.750;5.888;2024-03-08T12:23:00;19.98;;;16.48;;
32319;SDS011;19080;51.750;5.888;2024-03-08T12:25:30;19.48;;;16.15;;
32319;SDS011;19080;51.750;5.888;2024-03-08T12:28:11;19.65;;;15.70;;
32319;SDS011;19080;51.750;5.888;2024-03-08T12:30:50;25.63;;;15.82;;
32319;SDS011;19080;51.750;5.888;2024-03-08T12:33:20;18.60;;;15.60;;
32319;SDS011;19080;51.750;5.888;2024-03-08T12:35:53;21.77;;;16.63;;
32319;SDS011;19080;51.750;5.888;2024-03-08T12:38:22;23.08;;;16.63;;
32319;SDS011;19080;51.750;5.888;2024-03-08T12:40:59;18.33;;;15.57;;
32319;SDS011;19080;51.750;5.888;2024-03-08T12:43:27;18.77;;;15.40;;
32319;SDS011;19080;51.750;5.888;2024-03-08T12:45:58;20.20;;;16.63;;
32319;SDS011;19080;51.750;5.888;2024-03-08T12:48:25;23.67;;;16.65;;
32319;SDS011;19080;51.750;5.888;2024-03-08T12:50:52;23.48;;;16.75;;
32319;SDS011;19080;51.750;5.888;2024-03-08T12:53:20;21.00;;;16.60;;
32319;SDS011;19080;51.750;5.888;2024-03-08T12:55:47;23.23;;;16.63;;
32319;SDS011;19080;51.750;5.888;2024-03-08T12:58:14;21.10;;;16.98;;
32319;SDS011;19080;51.750;5.888;2024-03-08T13:00:43;20.27;;;16.70;;
32319;SDS011;19080;51.750;5.888;2024-03-08T13:03:10;22.80;;;17.42;;
32319;SDS011;19080;51.750;5.888;2024-03-08T13:05:38;21.17;;;17.83;;
32319;SDS011;19080;51.750;5.888;2024-03-08T13:08:06;21.17;;;17.80;;
32319;SDS011;19080;51.750;5.888;2024-03-08T13:10:40;22.55;;;17.20;;
32319;SDS011;19080;51.750;5.888;2024-03-08T13:13:10;21.80;;;16.98;;
32319;SDS011;19080;51.750;5.888;2024-03-08T13:15:40;20.88;;;17.25;;
32319;SDS011;19080;51.750;5.888;2024-03-08T13:18:07;20.50;;;16.42;;
32319;SDS011;19080;51.750;5.888;2024-03-08T13:20:35;20.70;;;16.52;;
32319;SDS011;19080;51.750;5.888;2024-03-08T13:23:13;19.67;;;16.52;;
32319;SDS011;19080;51.750;5.888;2024-03-08T13:25:40;22.20;;;16.65;;
32319;SDS011;19080;51.750;5.888;2024-03-08T13:28:07;19.80;;;16.00;;
32319;SDS011;19080;51.750;5.888;2024-03-08T13:30:35;20.75;;;17.48;;
32319;SDS011;19080;51.750;5.888;2024-03-08T13:33:02;20.88;;;17.33;;
32319;SDS011;19080;51.750;5.888;2024-03-08T13:35:31;21.70;;;16.55;;
32319;SDS011;19080;51.750;5.888;2024-03-08T13:37:59;20.92;;;16.70;;
32319;SDS011;19080;51.750;5.888;2024-03-08T13:40:26;20.98;;;17.00;;
32319;SDS011;19080;51.750;5.888;2024-03-08T13:42:53;19.02;;;16.95;;
32319;SDS011;19080;51.750;5.888;2024-03-08T13:45:20;18.38;;;16.25;;
32319;SDS011;19080;51.750;5.888;2024-03-08T13:47:52;22.00;;;16.88;;
32319;SDS011;19080;51.750;5.888;2024-03-08T13:50:20;20.65;;;17.38;;
32319;SDS011;19080;51.750;5.888;2024-03-08T13:52:52;23.23;;;15.73;;
32319;SDS011;19080;51.750;5.888;2024-03-08T13:55:22;20.33;;;16.55;;
32319;SDS011;19080;51.750;5.888;2024-03-08T13:57:49;23.67;;;16.35;;
32319;SDS011;19080;51.750;5.888;2024-03-08T14:00:18;21.25;;;17.30;;
32319;SDS011;19080;51.750;5.888;2024-03-08T14:02:48;20.70;;;16.92;;
32319;SDS011;19080;51.750;5.888;2024-03-08T14:05:16;22.35;;;16.85;;
32319;SDS011;19080;51.750;5.888;2024-03-08T14:07:45;19.25;;;16.65;;
32319;SDS011;19080;51.750;5.888;2024-03-08T14:10:16;21.38;;;16.58;;
32319;SDS011;19080;51.750;5.888;2024-03-08T14:12:47;21.77;;;17.42;;
32319;SDS011;19080;51.750;5.888;2024-03-08T14:15:15;22.27;;;16.40;;
32319;SDS011;19080;51.750;5.888;2024-03-08T14:17:42;23.77;;;17.63;;
32319;SDS011;19080;51.750;5.888;2024-03-08T14:20:12;18.55;;;16.33;;
32319;SDS011;19080;51.750;5.888;2024-03-08T14:22:39;21.00;;;17.27;;
32319;SDS011;19080;51.750;5.888;2024-03-08T14:25:06;18.90;;;16.38;;
32319;SDS011;19080;51.750;5.888;2024-03-08T14:27:46;21.27;;;17.13;;
32319;SDS011;19080;51.750;5.888;2024-03-08T14:30:13;19.75;;;16.25;;
32319;SDS011;19080;51.750;5.888;2024-03-08T14:32:58;21.20;;;16.75;;
32319;SDS011;19080;51.750;5.888;2024-03-08T14:35:26;21.23;;;16.58;;
32319;SDS011;19080;51.750;5.888;2024-03-08T14:37:53;19.33;;;15.85;;
32319;SDS011;19080;51.750;5.888;2024-03-08T14:40:19;20.42;;;16.83;;
32319;SDS011;19080;51.750;5.888;2024-03-08T14:42:48;18.60;;;15.70;;
32319;SDS011;19080;51.750;5.888;2024-03-08T14:45:18;17.80;;;14.90;;